EGQL TAF 191938Z 1921/2006 27006KT 9999 BKN045 PROB30 TEMPO 2004/2006 6000 RA SCT024